South Padre Island, TX

12:30 PM CDT on September 19, 2014 (GMT -0500)
Port Isabel | Change Station
CLOSE
Current Station
Airport
Location: Port Isabel,
Elevation: 16 ft
Nearby Weather Stations

Elev 16 ft 26.16 °N, 97.34 °W | Updated 37 minutes ago

Clear
Clear
90 °F
Feels Like 100 °F
N
12
Wind Variable Wind from South

Today
High -- | Low -- °F
--% Chance of Precip.
Yesterday
High -- | Low -- °F
Precip. -- in
7:16 AM 7:28 PM
Waning Crescent, 18% visible
Pressure 29.85 in
Visibility 6.0 miles
Clouds Few 3200 ft
Heat Index 100 °F
Dew Point 75 °F
Humidity 61%
Rainfall 0.00 in
Snow Depth Not available.
UV 9 out of 12
Pollen 9.80 out of 12
Air Quality Not available.
Flu Activity Not available.
METAR KPIL 191653Z AUTO 17010KT 6SM HZ FEW032 32/24 A2984 RMK AO2 SLP106 T03220239

More Conditions Fewer Conditions

Pressure 29.85 in
Visibility 6.0 miles
Clouds Few 3200 ft
Heat Index 100 °F
Dew Point 75 °F
Humidity 61%
Rainfall 0.00 in
Snow Depth Not available.
UV 9 out of 12
Pollen 9.80 out of 12
Air Quality Not available.
Flu Activity Not available.
METAR KPIL 191653Z AUTO 17010KT 6SM HZ FEW032 32/24 A2984 RMK AO2 SLP106 T03220239

More Conditions Fewer Conditions

Nowcast | as of 11:32 am CDT on September 19, 2014

Through 130 PM...isolated showers will likely develop along and near the Lower Texas coast. A brief moderate downpour can be expected under any shower that develops.

×

10-Day Weather Forecast

Almanac

Astronomy

Sep. 19, 2014 Rise Set
Actual Time 7:16 AM CDT 7:28 PM CDT
Civil Twilight 6:52 AM CDT 7:51 PM CDT
Nautical Twilight 6:26 AM CDT 8:18 PM CDT
Astronomical Twilight 5:59 AM CDT 8:45 PM CDT
Moon 3:21 AM CDT 4:40 PM CDT
Length of Visible Light 12h 58m
Length of Day
12h 12m
Tomorrow will be 1m 32s shorter.
Waning Crescent, 18% of the Moon is Illuminated
Today
Waning Crescent
Sep 24
New
Oct 1
First Quarter
Oct 8
Full
Oct 15
Last Quarter

Today's Extremes

State Highs State Lows

Community

WunderPhotos

Upload Photos

1,754,663 photos uploaded!

Nearby

Snow Depth

Station Depth Elevation
No new snow has been reported.

Earthquake Activity

City Distance Mag. Time & Date
No recent earthquake activity has been reported nearby.
Minimum magnitude displayed is 2.5.

Coastal Water Temperatures

Place Temperature
Port Isabel, TX 84.0 °F
Baffin Bay Point of Rocks, TX 84.9 °F
South Bird Island, TX 84.9 °F
Malaquite Beach (Corpus Christi), TX 84.9 °F
Packery Channel, TX 84.9 °F

Nearby Weather Stations